KCKM/CKM METAR and TAF weather

Enter ICAO airport designator
Station Type Date Time Source
KCKM METAR 2020/08/14 17:15 UTC NOAA

KCKM 141715Z AUTO 00000KT 9SM 25/25 A2995 RMK A01


Station Type Date Time Source
KCKM Decoded METAR 2020/08/14 17:15 UTC NOAA

Station name not available
Aug 14, 2020 - 01:15 PM EDT / 2020.08.14 1715 UTC
Wind: Calm:0
Visibility: 9 mile(s):0
Temperature: 77 F (25 C)
Dew Point: 77 F (25 C)
Relative Humidity: 100%
Pressure (altimeter): 29.95 in. Hg (1014 hPa)
ob: KCKM 141715Z AUTO 00000KT 9SM 25/25 A2995 RMK A01
cycle: 17

Station Type Date Time Source
KCKM TAF UTC NOAA

Error!

Example: see airport list